createdAt,value
2019-05-01T00:01:21.644Z,97.30
2019-05-01T00:04:07.410Z,97.30
2019-05-01T00:06:37.554Z,97.60
2019-05-01T00:09:06.511Z,97.70
2019-05-01T00:11:33.479Z,97.80
2019-05-01T00:14:00.468Z,97.90
2019-05-01T00:16:27.408Z,97.80
2019-05-01T00:18:54.247Z,98.10
2019-05-01T00:21:21.075Z,98.20
2019-05-01T00:23:47.947Z,98.40
2019-05-01T00:26:14.936Z,98.40
2019-05-01T00:28:41.711Z,98.50
2019-05-01T00:31:08.687Z,98.90
2019-05-01T00:33:35.466Z,99.10
2019-05-01T00:36:02.562Z,99.20
2019-05-01T00:38:29.524Z,99.30
2019-05-01T00:40:56.450Z,99.60
2019-05-01T00:43:23.175Z,99.60
2019-05-01T00:45:49.907Z,99.70
2019-05-01T00:48:16.691Z,99.90
2019-05-01T00:50:43.499Z,99.90
2019-05-01T00:53:10.520Z,99.90
2019-05-01T00:55:57.186Z,99.90
2019-05-01T00:58:38.575Z,99.90
2019-05-01T01:01:24.004Z,99.90
2019-05-01T01:03:51.175Z,99.90
2019-05-01T01:06:18.048Z,99.90
2019-05-01T01:08:45.129Z,99.90
2019-05-01T01:11:12.076Z,99.90
2019-05-01T01:13:38.936Z,99.90
2019-05-01T01:16:05.800Z,99.90
2019-05-01T01:18:32.534Z,99.90
2019-05-01T01:20:59.531Z,99.90
2019-05-01T01:23:26.675Z,99.90
2019-05-01T01:25:53.663Z,99.90
2019-05-01T01:28:21.432Z,99.90
2019-05-01T01:30:56.025Z,99.90
2019-05-01T01:33:17.416Z,99.90
2019-05-01T01:35:44.518Z,99.90
2019-05-01T01:38:11.390Z,99.90
2019-05-01T01:40:38.582Z,99.90
2019-05-01T01:43:23.952Z,99.90
2019-05-01T01:45:52.520Z,99.90
2019-05-01T01:48:19.594Z,99.90
2019-05-01T01:50:47.378Z,99.90
2019-05-01T01:53:18.183Z,99.90
2019-05-01T01:55:46.591Z,99.90
2019-05-01T01:58:14.690Z,99.90
2019-05-01T02:01:08.949Z,99.90
2019-05-01T02:03:29.283Z,99.90
2019-05-01T02:05:56.305Z,99.90
2019-05-01T02:08:23.347Z,99.90
2019-05-01T02:10:50.274Z,99.90
2019-05-01T02:13:17.263Z,99.90
2019-05-01T02:15:44.215Z,99.90
2019-05-01T02:18:11.162Z,99.90
2019-05-01T02:20:38.079Z,99.90
2019-05-01T02:23:05.023Z,99.90
2019-05-01T02:25:34.187Z,99.90
2019-05-01T02:28:33.730Z,99.90
2019-05-01T02:31:30.331Z,99.90
2019-05-01T02:33:57.700Z,99.90
2019-05-01T02:36:27.041Z,99.90
2019-05-01T02:38:55.590Z,99.90
2019-05-01T02:41:26.324Z,99.90
2019-05-01T02:43:58.167Z,99.90
2019-05-01T02:46:25.912Z,99.90
2019-05-01T02:49:02.914Z,99.90
2019-05-01T02:51:30.452Z,99.90
2019-05-01T02:53:59.511Z,99.90
2019-05-01T02:56:35.661Z,99.90
2019-05-01T02:59:05.780Z,99.90
2019-05-01T03:01:46.515Z,99.90
2019-05-01T03:04:04.802Z,99.90
2019-05-01T03:06:32.704Z,99.90
2019-05-01T03:09:01.759Z,99.90
2019-05-01T03:11:29.510Z,99.90
2019-05-01T03:13:58.507Z,99.90
2019-05-01T03:16:25.730Z,99.90
2019-05-01T03:18:55.798Z,99.90
2019-05-01T03:21:31.323Z,99.90
2019-05-01T03:24:07.917Z,99.90
2019-05-01T03:26:35.215Z,99.90
2019-05-01T03:29:03.434Z,99.90
2019-05-01T03:31:30.515Z,99.90
2019-05-01T03:33:57.571Z,99.90
2019-05-01T03:36:24.567Z,99.90
2019-05-01T03:38:51.480Z,99.90
2019-05-01T03:41:18.873Z,99.90
2019-05-01T03:43:46.285Z,99.90
2019-05-01T03:46:13.576Z,99.90
2019-05-01T03:48:41.739Z,99.90
2019-05-01T03:51:08.586Z,99.90
2019-05-01T03:53:35.841Z,99.90
2019-05-01T03:56:03.152Z,99.90
2019-05-01T04:02:07.317Z,99.90
2019-05-01T04:04:34.456Z,99.90
2019-05-01T04:07:01.405Z,99.90
2019-05-01T04:09:28.564Z,99.90
2019-05-01T04:11:55.507Z,99.90
2019-05-01T04:14:22.640Z,99.90
2019-05-01T04:16:55.053Z,99.90
2019-05-01T04:19:22.513Z,99.90
2019-05-01T04:21:55.285Z,99.90
2019-05-01T04:24:22.628Z,99.90
2019-05-01T04:26:49.723Z,99.90
2019-05-01T04:29:42.275Z,99.90
2019-05-01T04:32:28.781Z,99.90
2019-05-01T04:35:15.386Z,99.90
2019-05-01T04:37:42.920Z,99.90
2019-05-01T04:40:09.818Z,99.90
2019-05-01T04:42:37.025Z,99.90
2019-05-01T04:45:04.184Z,99.90
2019-05-01T04:47:31.433Z,99.90
2019-05-01T04:49:59.464Z,99.90
2019-05-01T04:52:26.623Z,99.90
2019-05-01T04:54:54.087Z,99.90
2019-05-01T04:57:21.444Z,99.90
2019-05-01T04:59:48.374Z,99.90
2019-05-01T05:02:21.750Z,99.90
2019-05-01T05:04:48.840Z,99.90
2019-05-01T05:07:16.214Z,99.90
2019-05-01T05:09:44.973Z,99.90
2019-05-01T05:12:18.808Z,99.90
2019-05-01T05:14:50.793Z,99.90
2019-05-01T05:17:20.561Z,99.90
2019-05-01T05:19:48.148Z,99.90
2019-05-01T05:22:16.625Z,99.90
2019-05-01T05:24:43.987Z,99.90
2019-05-01T05:27:12.267Z,99.90
2019-05-01T05:29:39.596Z,99.90
2019-05-01T05:32:07.168Z,99.90
2019-05-01T05:34:36.895Z,99.90
2019-05-01T05:37:16.047Z,99.90
2019-05-01T05:39:45.280Z,99.90
2019-05-01T05:42:12.558Z,99.90
2019-05-01T05:44:39.659Z,99.90
2019-05-01T05:47:07.855Z,99.90
2019-05-01T05:49:34.931Z,99.90
2019-05-01T05:52:14.195Z,99.90
2019-05-01T05:55:14.752Z,99.90
2019-05-01T05:58:03.687Z,99.90
2019-05-01T06:01:05.031Z,99.90
2019-05-01T06:04:02.720Z,99.90
2019-05-01T06:06:36.742Z,99.90
2019-05-01T06:09:08.939Z,99.90
2019-05-01T06:11:47.520Z,99.90
2019-05-01T06:14:34.570Z,99.90
2019-05-01T06:17:17.863Z,99.90
2019-05-01T06:20:13.393Z,99.90
2019-05-01T06:23:00.955Z,97.50
2019-05-01T06:25:32.456Z,96.20
2019-05-01T06:27:59.536Z,94.10
2019-05-01T06:30:26.638Z,94.10
2019-05-01T06:32:53.591Z,93.00
2019-05-01T06:35:21.000Z,91.90
2019-05-01T06:38:02.198Z,90.40
2019-05-01T06:40:38.159Z,87.50
2019-05-01T06:43:08.747Z,84.60
2019-05-01T06:45:37.408Z,81.00
2019-05-01T06:48:05.988Z,80.00
2019-05-01T06:50:41.624Z,79.70
2019-05-01T06:53:07.019Z,76.80
2019-05-01T06:55:35.090Z,75.80
2019-05-01T06:58:02.531Z,77.50
2019-05-01T07:00:30.018Z,76.20
2019-05-01T07:02:57.486Z,74.20
2019-05-01T07:05:25.743Z,74.80
2019-05-01T07:07:55.009Z,75.40
2019-05-01T07:10:30.535Z,78.20
2019-05-01T07:12:52.664Z,77.20
2019-05-01T07:15:21.957Z,75.00
2019-05-01T07:17:49.019Z,74.80
2019-05-01T07:20:47.319Z,74.50
2019-05-01T07:23:17.492Z,74.30
2019-05-01T07:25:44.099Z,71.80
2019-05-01T07:28:11.106Z,68.60
2019-05-01T07:30:43.501Z,69.20
2019-05-01T07:33:12.107Z,68.90
2019-05-01T07:35:40.353Z,69.30
2019-05-01T07:38:07.518Z,70.60
2019-05-01T07:40:35.023Z,70.60
2019-05-01T07:43:09.594Z,70.90
2019-05-01T07:45:57.151Z,69.90
2019-05-01T07:48:36.078Z,68.50
2019-05-01T07:51:01.953Z,66.40
2019-05-01T07:53:30.488Z,63.20
2019-05-01T07:55:57.655Z,62.60
2019-05-01T07:58:24.890Z,62.10
2019-05-01T08:01:13.134Z,61.90
2019-05-01T08:03:42.621Z,59.40
2019-05-01T08:06:08.019Z,59.40
2019-05-01T08:08:39.719Z,58.80
2019-05-01T08:11:05.349Z,58.30
2019-05-01T08:13:35.086Z,56.90
2019-05-01T08:16:07.170Z,54.80
2019-05-01T08:18:44.432Z,54.00
2019-05-01T08:21:27.610Z,52.30
2019-05-01T08:23:54.487Z,51.60
2019-05-01T08:26:21.483Z,51.50
2019-05-01T08:29:23.083Z,50.90
2019-05-01T08:32:03.474Z,49.50
2019-05-01T08:34:29.828Z,49.10
2019-05-01T08:36:56.847Z,48.70
2019-05-01T08:39:23.583Z,49.50
2019-05-01T08:41:52.319Z,48.30
2019-05-01T08:44:24.944Z,49.30
2019-05-01T08:47:09.436Z,48.10
2019-05-01T08:49:50.654Z,45.80
2019-05-01T08:52:17.515Z,45.00
2019-05-01T08:54:44.266Z,45.20
2019-05-01T08:57:11.156Z,43.50
2019-05-01T08:59:37.990Z,42.60
2019-05-01T09:02:09.474Z,42.50
2019-05-01T09:04:33.735Z,44.30
2019-05-01T09:07:00.491Z,44.10
2019-05-01T09:09:27.354Z,44.00
2019-05-01T09:11:54.762Z,46.10
2019-05-01T09:14:21.720Z,46.60
2019-05-01T09:16:48.734Z,46.00
2019-05-01T09:19:15.715Z,44.60
2019-05-01T09:21:42.591Z,44.80
2019-05-01T09:24:09.486Z,44.90
2019-05-01T09:26:45.452Z,44.90
2019-05-01T09:29:16.126Z,45.40
2019-05-01T09:31:44.351Z,44.40
2019-05-01T09:34:14.078Z,44.50
2019-05-01T09:36:40.222Z,43.30
2019-05-01T09:39:09.098Z,43.80
2019-05-01T09:41:38.446Z,43.40
2019-05-01T09:44:05.771Z,41.50
2019-05-01T09:46:33.829Z,42.30
2019-05-01T09:49:01.007Z,41.60
2019-05-01T09:51:49.235Z,42.20
2019-05-01T09:54:36.111Z,42.20
2019-05-01T09:57:03.483Z,41.80
2019-05-01T09:59:30.343Z,42.20
2019-05-01T10:01:57.318Z,42.60
2019-05-01T10:04:25.314Z,41.70
2019-05-01T10:06:54.123Z,41.30
2019-05-01T10:09:21.263Z,40.30
2019-05-01T10:11:48.140Z,39.70
2019-05-01T10:14:15.127Z,40.90
2019-05-01T10:16:42.131Z,40.80
2019-05-01T10:19:08.894Z,39.60
2019-05-01T10:21:35.699Z,38.30
2019-05-01T10:24:02.666Z,39.20
2019-05-01T10:26:31.524Z,39.90
2019-05-01T10:29:21.463Z,40.30
2019-05-01T10:32:16.854Z,40.00
2019-05-01T10:34:56.875Z,38.30
2019-05-01T10:37:28.482Z,36.80
2019-05-01T10:39:54.134Z,36.20
2019-05-01T10:42:21.920Z,34.40
2019-05-01T10:44:48.866Z,33.20
2019-05-01T10:47:15.618Z,33.30
2019-05-01T10:49:42.366Z,33.50
2019-05-01T10:52:14.215Z,31.30
2019-05-01T10:54:37.979Z,31.60
2019-05-01T10:57:05.012Z,32.70
2019-05-01T10:59:32.011Z,34.00
2019-05-01T11:02:00.071Z,32.20
2019-05-01T11:04:27.005Z,34.10
2019-05-01T11:06:54.003Z,36.20
2019-05-01T11:09:20.974Z,34.70
2019-05-01T11:11:47.811Z,35.00
2019-05-01T11:14:14.923Z,34.10
2019-05-01T11:16:41.881Z,33.40
2019-05-01T11:19:08.814Z,32.50
2019-05-01T11:21:35.824Z,33.30
2019-05-01T11:24:02.685Z,34.00
2019-05-01T11:26:29.647Z,32.90
2019-05-01T11:28:56.843Z,33.00
2019-05-01T11:31:29.564Z,32.50
2019-05-01T11:34:17.255Z,32.20
2019-05-01T11:37:16.019Z,32.50
2019-05-01T11:39:49.449Z,32.50
2019-05-01T11:42:16.343Z,32.70
2019-05-01T11:44:45.394Z,32.70
2019-05-01T11:47:12.480Z,32.00
2019-05-01T11:49:39.458Z,31.80
2019-05-01T11:52:06.421Z,32.60
2019-05-01T11:54:33.263Z,31.70
2019-05-01T11:57:00.271Z,31.40
2019-05-01T11:59:27.119Z,31.60
2019-05-01T12:01:54.083Z,32.30
2019-05-01T12:04:21.076Z,31.90
2019-05-01T12:06:47.852Z,31.30
2019-05-01T12:09:14.947Z,31.10
2019-05-01T12:11:43.626Z,33.00
2019-05-01T12:14:10.376Z,32.70
2019-05-01T12:17:01.056Z,31.90
2019-05-01T12:19:27.895Z,32.20
2019-05-01T12:21:54.699Z,34.20
2019-05-01T12:24:21.885Z,35.70
2019-05-01T12:26:48.852Z,36.80
2019-05-01T12:29:15.764Z,36.70
2019-05-01T12:31:42.764Z,37.70
2019-05-01T12:34:09.755Z,37.60
2019-05-01T12:36:37.458Z,37.20
2019-05-01T12:39:05.631Z,37.10
2019-05-01T12:41:40.227Z,35.90
2019-05-01T12:44:07.197Z,36.30
2019-05-01T12:46:49.158Z,35.50
2019-05-01T12:49:16.171Z,36.60
2019-05-01T12:51:47.844Z,38.30
2019-05-01T12:54:26.164Z,38.40
2019-05-01T12:56:55.093Z,39.30
2019-05-01T12:59:21.995Z,39.10
2019-05-01T13:01:48.883Z,39.60
2019-05-01T13:04:15.759Z,39.90
2019-05-01T13:06:49.281Z,40.00
2019-05-01T13:09:11.917Z,40.00
2019-05-01T13:11:38.931Z,41.20
2019-05-01T13:14:05.982Z,42.00
2019-05-01T13:16:32.877Z,42.30
2019-05-01T13:18:59.887Z,42.80
2019-05-01T13:21:26.886Z,41.90
2019-05-01T13:23:53.917Z,43.20
2019-05-01T13:26:35.726Z,42.50
2019-05-01T13:29:21.331Z,42.20
2019-05-01T13:31:59.427Z,42.80
2019-05-01T13:34:26.367Z,42.60
2019-05-01T13:37:02.904Z,42.90
2019-05-01T13:39:22.123Z,42.70
2019-05-01T13:41:49.104Z,42.40
2019-05-01T13:44:15.858Z,43.90
2019-05-01T13:46:42.751Z,42.60
2019-05-01T13:49:09.751Z,42.30
2019-05-01T13:51:36.624Z,43.10
2019-05-01T13:54:06.394Z,42.20
2019-05-01T13:56:33.489Z,42.60
2019-05-01T13:59:02.643Z,42.90
2019-05-01T14:01:32.456Z,42.40
2019-05-01T14:03:59.620Z,43.00
2019-05-01T14:06:26.681Z,43.30
2019-05-01T14:08:53.567Z,42.70
2019-05-01T14:11:20.406Z,43.00
2019-05-01T14:13:47.464Z,43.20
2019-05-01T14:16:14.521Z,43.90
2019-05-01T14:18:41.632Z,42.70
2019-05-01T14:21:32.063Z,43.80
2019-05-01T14:24:27.495Z,42.80
2019-05-01T14:26:54.372Z,42.70
2019-05-01T14:29:21.522Z,43.60
2019-05-01T14:31:48.396Z,43.40
2019-05-01T14:34:15.327Z,43.20
2019-05-01T14:36:42.215Z,43.20
2019-05-01T14:39:09.092Z,42.40
2019-05-01T14:41:36.031Z,42.30
2019-05-01T14:44:04.010Z,43.40
2019-05-01T14:46:30.746Z,43.10
2019-05-01T14:48:57.727Z,43.50
2019-05-01T14:51:27.048Z,43.40
2019-05-01T14:53:53.763Z,44.10
2019-05-01T14:56:20.655Z,44.20
2019-05-01T14:58:47.824Z,44.50
2019-05-01T15:01:14.927Z,44.60
2019-05-01T15:03:41.973Z,44.30
2019-05-01T15:06:08.795Z,43.80
2019-05-01T15:08:35.658Z,44.20
2019-05-01T15:11:02.685Z,44.40
2019-05-01T15:13:44.363Z,45.30
2019-05-01T15:16:20.067Z,45.70
2019-05-01T15:19:00.221Z,45.10
2019-05-01T15:21:26.987Z,45.70
2019-05-01T15:23:54.255Z,45.00
2019-05-01T15:26:21.018Z,44.60
2019-05-01T15:28:47.907Z,45.70
2019-05-01T15:31:14.779Z,44.60
2019-05-01T15:33:41.580Z,44.90
2019-05-01T15:36:08.547Z,45.30
2019-05-01T15:38:35.387Z,45.00
2019-05-01T15:41:12.121Z,44.80
2019-05-01T15:43:46.971Z,45.00
2019-05-01T15:46:13.919Z,45.50
2019-05-01T15:48:40.827Z,45.50
2019-05-01T15:51:07.803Z,45.20
2019-05-01T15:53:34.541Z,45.70
2019-05-01T15:56:01.606Z,45.30
2019-05-01T15:58:28.371Z,45.90
2019-05-01T16:00:55.115Z,45.60
2019-05-01T16:03:21.976Z,45.70
2019-05-01T16:05:48.943Z,47.40
2019-05-01T16:08:15.751Z,47.20
2019-05-01T16:10:50.585Z,47.10
2019-05-01T16:13:17.463Z,47.00
2019-05-01T16:15:44.315Z,47.10
2019-05-01T16:18:11.183Z,47.10
2019-05-01T16:20:37.975Z,46.90
2019-05-01T16:23:04.939Z,46.10
2019-05-01T16:25:31.781Z,46.60
2019-05-01T16:27:58.623Z,47.50
2019-05-01T16:30:26.375Z,48.10
2019-05-01T16:32:53.250Z,49.00
2019-05-01T16:35:20.264Z,48.80
2019-05-01T16:37:47.415Z,48.00
2019-05-01T16:40:34.098Z,48.20
2019-05-01T16:43:00.892Z,47.90
2019-05-01T16:45:27.810Z,48.60
2019-05-01T16:47:54.580Z,48.60
2019-05-01T16:50:21.893Z,48.20
2019-05-01T16:52:48.884Z,48.20
2019-05-01T16:55:16.541Z,48.60
2019-05-01T16:57:43.536Z,48.80
2019-05-01T17:00:12.939Z,48.80
2019-05-01T17:03:09.435Z,49.10
2019-05-01T17:06:05.128Z,48.80
2019-05-01T17:08:41.070Z,49.90
2019-05-01T17:11:09.368Z,50.90
2019-05-01T17:13:36.162Z,50.20
2019-05-01T17:16:03.461Z,50.50
2019-05-01T17:18:30.218Z,50.50
2019-05-01T17:20:57.218Z,50.80
2019-05-01T17:23:24.391Z,50.70
2019-05-01T17:25:51.505Z,51.00
2019-05-01T17:28:18.431Z,51.50
2019-05-01T17:30:49.175Z,52.00
2019-05-01T17:33:20.964Z,52.50
2019-05-01T17:35:44.951Z,52.20
2019-05-01T17:38:11.874Z,52.40
2019-05-01T17:40:38.727Z,53.20
2019-05-01T17:43:07.986Z,54.80
2019-05-01T17:45:36.542Z,54.90
2019-05-01T17:48:03.674Z,55.20
2019-05-01T17:50:30.429Z,55.50
2019-05-01T17:52:57.312Z,55.70
2019-05-01T17:55:24.303Z,56.90
2019-05-01T17:57:51.167Z,57.10
2019-05-01T18:00:39.441Z,57.60
2019-05-01T18:03:24.487Z,58.60
2019-05-01T18:06:16.830Z,59.70
2019-05-01T18:08:43.727Z,59.60
2019-05-01T18:11:14.310Z,60.20
2019-05-01T18:13:39.512Z,61.10
2019-05-01T18:16:06.698Z,61.90
2019-05-01T18:18:33.633Z,62.30
2019-05-01T18:21:00.501Z,63.40
2019-05-01T18:23:47.485Z,64.50
2019-05-01T18:26:21.315Z,65.10
2019-05-01T18:28:55.734Z,66.10
2019-05-01T18:31:28.024Z,66.90
2019-05-01T18:33:56.894Z,67.20
2019-05-01T18:36:29.335Z,68.30
2019-05-01T18:39:00.227Z,69.60
2019-05-01T18:41:59.003Z,70.10
2019-05-01T18:44:26.087Z,71.90
2019-05-01T18:46:53.309Z,72.90
2019-05-01T18:49:20.155Z,73.40
2019-05-01T18:51:47.254Z,74.20
2019-05-01T18:54:14.148Z,75.20
2019-05-01T18:56:41.169Z,76.50
2019-05-01T18:59:08.131Z,77.50
2019-05-01T19:01:35.210Z,79.00
2019-05-01T19:04:02.207Z,81.50
2019-05-01T19:06:40.661Z,82.40
2019-05-01T19:08:57.939Z,83.70
2019-05-01T19:11:24.914Z,85.10
2019-05-01T19:13:52.046Z,86.40
2019-05-01T19:16:19.049Z,87.50
2019-05-01T19:18:46.025Z,89.20
2019-05-01T19:21:14.055Z,90.00
2019-05-01T19:23:41.396Z,90.20
2019-05-01T19:26:08.476Z,90.50
2019-05-01T19:28:35.311Z,90.80
2019-05-01T19:31:02.521Z,91.30
2019-05-01T19:33:29.519Z,91.60
2019-05-01T19:35:56.372Z,91.80
2019-05-01T19:38:23.535Z,92.10
2019-05-01T19:40:50.602Z,92.30
2019-05-01T19:43:17.485Z,92.50
2019-05-01T19:45:44.551Z,92.90
2019-05-01T19:48:11.656Z,93.10
2019-05-01T19:50:39.919Z,93.30
2019-05-01T19:53:10.110Z,93.60
2019-05-01T19:55:39.961Z,94.00
2019-05-01T19:58:05.026Z,94.20
2019-05-01T20:00:51.252Z,94.50
2019-05-01T20:03:18.360Z,94.70
2019-05-01T20:05:45.364Z,95.10
2019-05-01T20:08:12.379Z,95.30
2019-05-01T20:10:39.399Z,95.60
2019-05-01T20:13:06.962Z,95.80
2019-05-01T20:15:35.034Z,96.00
2019-05-01T20:18:01.938Z,96.30
2019-05-01T20:20:29.623Z,96.40
2019-05-01T20:22:56.360Z,96.50
2019-05-01T20:25:23.523Z,96.70
2019-05-01T20:27:53.118Z,96.80
2019-05-01T20:30:19.351Z,96.90
2019-05-01T20:32:46.090Z,97.00
2019-05-01T20:35:12.978Z,96.90
2019-05-01T20:37:39.956Z,96.70
2019-05-01T20:40:11.401Z,96.10
2019-05-01T20:42:36.234Z,95.60
2019-05-01T20:45:05.587Z,95.20
2019-05-01T20:47:35.176Z,94.70
2019-05-01T20:50:00.924Z,94.30
2019-05-01T20:52:28.150Z,94.30
2019-05-01T20:54:54.920Z,94.30
2019-05-01T20:57:29.340Z,93.80
2019-05-01T20:59:56.274Z,94.00
2019-05-01T21:02:23.462Z,93.90
2019-05-01T21:04:56.511Z,94.00
2019-05-01T21:07:32.240Z,94.20
2019-05-01T21:10:01.224Z,94.40
2019-05-01T21:12:28.220Z,94.50
2019-05-01T21:14:54.915Z,94.60
2019-05-01T21:17:21.999Z,94.80
2019-05-01T21:19:49.091Z,94.90
2019-05-01T21:22:17.340Z,95.20
2019-05-01T21:24:44.442Z,95.60
2019-05-01T21:27:13.219Z,95.80
2019-05-01T21:29:40.251Z,96.20
2019-05-01T21:32:07.173Z,96.40
2019-05-01T21:34:34.099Z,96.60
2019-05-01T21:37:01.079Z,96.80
2019-05-01T21:39:27.947Z,96.90
2019-05-01T21:41:54.686Z,97.10
2019-05-01T21:44:23.392Z,97.20
2019-05-01T21:46:50.442Z,97.20
2019-05-01T21:49:17.199Z,97.30
2019-05-01T21:51:46.132Z,97.50
2019-05-01T21:54:16.086Z,97.60
2019-05-01T21:56:42.656Z,97.80
2019-05-01T21:59:09.696Z,97.80
2019-05-01T22:01:36.736Z,98.00
2019-05-01T22:04:04.038Z,98.00
2019-05-01T22:06:31.043Z,98.10
2019-05-01T22:08:58.294Z,98.30
2019-05-01T22:11:25.263Z,98.20
2019-05-01T22:13:55.082Z,98.30
2019-05-01T22:16:23.932Z,98.60
2019-05-01T22:19:10.737Z,98.70
2019-05-01T22:21:46.986Z,98.90
2019-05-01T22:24:22.242Z,99.30
2019-05-01T22:26:56.975Z,99.90
2019-05-01T22:29:27.333Z,99.50
2019-05-01T22:32:02.499Z,99.50
2019-05-01T22:34:35.418Z,99.40
2019-05-01T22:37:02.424Z,99.60
2019-05-01T22:39:30.568Z,99.80
2019-05-01T22:41:57.543Z,99.70
2019-05-01T22:44:24.539Z,99.90
2019-05-01T22:46:51.360Z,99.70
2019-05-01T22:49:18.215Z,99.90
2019-05-01T22:51:45.052Z,99.90
2019-05-01T22:54:11.825Z,99.90
2019-05-01T22:56:38.674Z,99.90
2019-05-01T22:59:05.687Z,99.70
2019-05-01T23:01:32.546Z,99.50
2019-05-01T23:04:01.893Z,99.60
2019-05-01T23:06:28.874Z,99.70
2019-05-01T23:08:55.839Z,99.90
2019-05-01T23:11:25.079Z,99.90
2019-05-01T23:13:52.147Z,99.90
2019-05-01T23:16:20.891Z,99.90
2019-05-01T23:18:51.807Z,99.90
2019-05-01T23:21:16.707Z,99.90
2019-05-01T23:23:43.555Z,99.90
2019-05-01T23:26:11.597Z,99.90
2019-05-01T23:28:39.903Z,99.90
2019-05-01T23:31:08.131Z,99.90
2019-05-01T23:33:34.969Z,99.90
2019-05-01T23:36:01.869Z,99.90
2019-05-01T23:38:28.711Z,99.90
2019-05-01T23:40:55.580Z,99.90
2019-05-01T23:43:23.105Z,99.90
2019-05-01T23:45:51.286Z,99.90
2019-05-01T23:48:18.292Z,99.90
2019-05-01T23:50:45.063Z,99.90
2019-05-01T23:53:13.932Z,99.90
2019-05-01T23:55:40.644Z,99.90
2019-05-01T23:58:07.478Z,99.90
